Darstellungsparameter: Aktuell verwendete Einstellungen:
Skalierung der Graphiken ... ?
xyx+y,   Skalierungsfaktor:      Skalierung: Modus: x, Faktor: 1
Darstellungszeitraum ... ?
Vom - - bis: - -   Zeitraum: 29.02.2020 - 29.02.2020
Min/Max/Avg-Anzeige ... ?
Zeige MMA aktuell
Zeige MMA Monat
Zeige MMA alles
Zeige --A aktuell
Zeige --A Monat
Zeige --A alles
Keine MMA-Anzeige
MMA:
Keine MMA-Graphiken
MMA-Basis: 29.02.2020 - 29.02.2020
Quicknavigation für Darstellung... ?
Tage:      1T, 2T, 3T, 5T -1T -2T -3T -5T +1T +2T +3T +5T
Wochen: 1W, 2W, 3W -1W -2W -3W +1W +2W +3W
Monate: 1M, 3M, 6M -1M -3M -6M +1M +3M +6M
Jahre:    1J, 3J, 5J, 10J -1J -3J -5J -10J +1J +3J +5J +10J
Nutze für die Darstellung ... ?
Originaldaten oder Mittelwerte auf ...
Stundenbasis Tagesbasis Wochenbasis
Monatsbasis Jahresbasis      Datenbasis: Original-Daten
Darstellen als:
Statistik (Auto) Statistik J:M      Darstellung:
Zur Graphik,    zurück zur Übersicht aller Sensoren.
 
Tabellarische Datenbersicht: ?
 
Sensor: Nr:Datum:Temp:Feuchte:Taupunkt:
Aussen-T/F 1 29-02-2020 00:00:00 4.6 C 94 % 3.72 C
2 29-02-2020 00:05:00 4.6 C 94 % 3.72 C
3 29-02-2020 00:10:00 4.7 C 94 % 3.82 C
4 29-02-2020 00:15:00 4.8 C 94 % 3.92 C
5 29-02-2020 00:20:00 4.9 C 94 % 4.02 C
6 29-02-2020 00:25:00 5.1 C 94 % 4.22 C
7 29-02-2020 00:30:00 5.2 C 94 % 4.32 C
8 29-02-2020 00:35:00 5.3 C 94 % 4.41 C
9 29-02-2020 00:40:00 5.5 C 93 % 4.46 C
10 29-02-2020 00:45:00 5.6 C 93 % 4.56 C
11 29-02-2020 00:50:00 5.6 C 93 % 4.56 C
12 29-02-2020 00:55:00 5.7 C 93 % 4.66 C
13 29-02-2020 01:00:00 5.6 C 93 % 4.56 C
14 29-02-2020 01:05:00 5.7 C 93 % 4.66 C
15 29-02-2020 01:10:00 5.7 C 93 % 4.66 C
16 29-02-2020 01:15:00 5.7 C 93 % 4.66 C
17 29-02-2020 01:20:00 5.6 C 93 % 4.56 C
18 29-02-2020 01:25:00 5.6 C 93 % 4.56 C
19 29-02-2020 01:30:00 5.6 C 94 % 4.71 C
20 29-02-2020 01:35:00 5.7 C 94 % 4.81 C
21 29-02-2020 01:40:00 5.7 C 94 % 4.81 C
22 29-02-2020 01:45:00 5.8 C 94 % 4.91 C
23 29-02-2020 01:50:00 5.8 C 94 % 4.91 C
24 29-02-2020 01:55:00 5.8 C 95 % 5.06 C
25 29-02-2020 02:00:00 5.9 C 95 % 5.16 C
Sensor: Nr:Datum:Temp:Feuchte:Taupunkt:
Aussen-T/F 26 29-02-2020 02:05:00 5.9 C 95 % 5.16 C
27 29-02-2020 02:10:00 5.9 C 95 % 5.16 C
28 29-02-2020 02:15:00 5.9 C 94 % 5.01 C
29 29-02-2020 02:20:00 5.9 C 95 % 5.16 C
30 29-02-2020 02:25:00 5.9 C 95 % 5.16 C
31 29-02-2020 02:30:00 5.9 C 95 % 5.16 C
32 29-02-2020 02:35:00 6.1 C 95 % 5.36 C
33 29-02-2020 02:40:00 6.2 C 95 % 5.46 C
34 29-02-2020 02:45:00 6.4 C 95 % 5.66 C
35 29-02-2020 02:50:00 6.6 C 95 % 5.86 C
36 29-02-2020 02:55:00 6.7 C 95 % 5.96 C
37 29-02-2020 03:00:00 7.1 C 95 % 6.35 C
38 29-02-2020 03:05:00 7.4 C 95 % 6.65 C
39 29-02-2020 03:10:00 7.7 C 94 % 6.8 C
40 29-02-2020 03:15:00 7.9 C 94 % 7 C
41 29-02-2020 03:20:00 8.2 C 93 % 7.14 C
42 29-02-2020 03:25:00 8.5 C 92 % 7.28 C
43 29-02-2020 03:30:00 8.7 C 92 % 7.47 C
44 29-02-2020 03:35:00 8.8 C 91 % 7.41 C
45 29-02-2020 03:40:00 8.9 C 91 % 7.51 C
46 29-02-2020 03:45:00 9.1 C 90 % 7.55 C
47 29-02-2020 03:50:00 9.2 C 90 % 7.65 C
48 29-02-2020 03:55:00 9.3 C 90 % 7.75 C
49 29-02-2020 04:00:00 9.4 C 89 % 7.68 C
50 29-02-2020 04:05:00 9.6 C 89 % 7.88 C
Sensor: Nr:Datum:Temp:Feuchte:Taupunkt:
Aussen-T/F 51 29-02-2020 04:10:00 9.6 C 89 % 7.88 C
52 29-02-2020 04:15:00 9.7 C 88 % 7.81 C
53 29-02-2020 04:20:00 9.8 C 88 % 7.91 C
54 29-02-2020 04:25:00 9.8 C 88 % 7.91 C
55 29-02-2020 04:30:00 9.8 C 87 % 7.74 C
56 29-02-2020 04:35:00 9.8 C 87 % 7.74 C
57 29-02-2020 04:40:00 9.8 C 87 % 7.74 C
58 29-02-2020 04:45:00 9.8 C 87 % 7.74 C
59 29-02-2020 04:50:00 9.8 C 87 % 7.74 C
60 29-02-2020 04:55:00 9.8 C 87 % 7.74 C
61 29-02-2020 05:00:00 9.7 C 87 % 7.64 C
62 29-02-2020 05:05:00 9.7 C 87 % 7.64 C
63 29-02-2020 05:10:00 9.7 C 86 % 7.47 C
64 29-02-2020 05:15:00 9.7 C 86 % 7.47 C
65 29-02-2020 05:20:00 9.7 C 86 % 7.47 C
66 29-02-2020 05:25:00 9.6 C 86 % 7.38 C
67 29-02-2020 05:30:00 9.6 C 86 % 7.38 C
68 29-02-2020 05:35:00 9.6 C 86 % 7.38 C
69 29-02-2020 05:40:00 9.5 C 86 % 7.28 C
70 29-02-2020 05:45:00 9.5 C 86 % 7.28 C
71 29-02-2020 05:50:00 9.5 C 86 % 7.28 C
72 29-02-2020 05:55:00 9.5 C 86 % 7.28 C
73 29-02-2020 06:00:00 9.5 C 86 % 7.28 C
74 29-02-2020 06:05:00 9.5 C 86 % 7.28 C
75 29-02-2020 06:10:00 9.4 C 86 % 7.18 C
Sensor: Nr:Datum:Temp:Feuchte:Taupunkt:
Aussen-T/F 76 29-02-2020 06:15:00 9.4 C 86 % 7.18 C
77 29-02-2020 06:20:00 9.4 C 86 % 7.18 C
78 29-02-2020 06:25:00 9.3 C 86 % 7.08 C
79 29-02-2020 06:30:00 9.2 C 86 % 6.98 C
80 29-02-2020 06:35:00 9.2 C 86 % 6.98 C
81 29-02-2020 06:40:00 9.2 C 86 % 6.98 C
82 29-02-2020 06:45:00 9.2 C 86 % 6.98 C
83 29-02-2020 06:50:00 9.2 C 86 % 6.98 C
84 29-02-2020 06:55:00 9.2 C 86 % 6.98 C
85 29-02-2020 07:00:00 9.2 C 86 % 6.98 C
86 29-02-2020 07:05:00 9.1 C 86 % 6.89 C
87 29-02-2020 07:10:00 9 C 86 % 6.79 C
88 29-02-2020 07:15:00 8.9 C 86 % 6.69 C
89 29-02-2020 07:20:00 8.8 C 87 % 6.76 C
90 29-02-2020 07:25:00 8.8 C 87 % 6.76 C
91 29-02-2020 07:30:00 8.7 C 87 % 6.66 C
92 29-02-2020 07:35:00 8.7 C 87 % 6.66 C
93 29-02-2020 07:40:00 8.6 C 87 % 6.56 C
94 29-02-2020 07:45:00 8.6 C 87 % 6.56 C
95 29-02-2020 07:50:00 8.5 C 88 % 6.63 C
96 29-02-2020 07:55:00 8.4 C 88 % 6.53 C
97 29-02-2020 08:00:00 8.3 C 88 % 6.43 C
98 29-02-2020 08:05:00 8.3 C 88 % 6.43 C
99 29-02-2020 08:10:00 8.3 C 89 % 6.6 C
100 29-02-2020 08:15:00 8.3 C 89 % 6.6 C
Sensor: Nr:Datum:Temp:Feuchte:Taupunkt:
Aussen-T/F 101 29-02-2020 08:20:00 8.2 C 89 % 6.5 C
102 29-02-2020 08:25:00 8.2 C 89 % 6.5 C
103 29-02-2020 08:30:00 8.2 C 90 % 6.66 C
104 29-02-2020 08:35:00 8.2 C 90 % 6.66 C
105 29-02-2020 08:40:00 8.2 C 90 % 6.66 C
106 29-02-2020 08:45:00 8.2 C 90 % 6.66 C
107 29-02-2020 08:50:00 8.2 C 90 % 6.66 C
108 29-02-2020 08:55:00 8.2 C 90 % 6.66 C
109 29-02-2020 09:00:00 8.3 C 90 % 6.76 C
110 29-02-2020 09:05:00 8.4 C 91 % 7.02 C
111 29-02-2020 09:10:00 8.5 C 90 % 6.96 C
112 29-02-2020 09:15:00 8.6 C 89 % 6.89 C
113 29-02-2020 09:20:00 8.7 C 88 % 6.83 C
114 29-02-2020 09:25:00 8.9 C 88 % 7.02 C
115 29-02-2020 09:30:00 9.1 C 88 % 7.22 C
116 29-02-2020 09:35:00 9.2 C 88 % 7.32 C
117 29-02-2020 09:40:00 9.3 C 87 % 7.25 C
118 29-02-2020 09:45:00 9.4 C 86 % 7.18 C
119 29-02-2020 09:50:00 9.6 C 83 % 6.86 C
120 29-02-2020 09:55:00 9.7 C 81 % 6.6 C
121 29-02-2020 10:00:00 9.8 C 80 % 6.52 C
122 29-02-2020 10:05:00 9.9 C 80 % 6.62 C
123 29-02-2020 10:10:00 10 C 79 % 6.53 C
124 29-02-2020 10:15:00 10.1 C 78 % 6.44 C
125 29-02-2020 10:20:00 10.1 C 78 % 6.44 C
Sensor: Nr:Datum:Temp:Feuchte:Taupunkt:
Aussen-T/F 126 29-02-2020 10:25:00 10.1 C 76 % 6.07 C
127 29-02-2020 10:30:00 10.1 C 77 % 6.26 C
128 29-02-2020 10:35:00 10.2 C 77 % 6.35 C
129 29-02-2020 10:40:00 10.2 C 77 % 6.35 C
130 29-02-2020 10:45:00 10.3 C 77 % 6.45 C
131 29-02-2020 10:50:00 10.4 C 78 % 6.74 C
132 29-02-2020 10:55:00 10.4 C 76 % 6.36 C
133 29-02-2020 11:00:00 10.6 C 76 % 6.55 C
134 29-02-2020 11:05:00 10.7 C 77 % 6.84 C
135 29-02-2020 11:10:00 10.7 C 75 % 6.46 C
136 29-02-2020 11:15:00 10.9 C 76 % 6.84 C
137 29-02-2020 11:20:00 11 C 74 % 6.55 C
138 29-02-2020 11:25:00 11.3 C 73 % 6.64 C
139 29-02-2020 11:30:00 11.6 C 72 % 6.73 C
140 29-02-2020 11:35:00 11.9 C 71 % 6.82 C
141 29-02-2020 11:40:00 12.2 C 70 % 6.9 C
142 29-02-2020 11:45:00 12.3 C 70 % 6.99 C
143 29-02-2020 11:50:00 12.6 C 67 % 6.64 C
144 29-02-2020 11:55:00 12.7 C 68 % 6.95 C
145 29-02-2020 12:00:00 12.9 C 68 % 7.14 C
146 29-02-2020 12:05:00 13.2 C 66 % 7 C
147 29-02-2020 12:10:00 13.5 C 65 % 7.06 C
148 29-02-2020 12:15:00 13.8 C 66 % 7.57 C
149 29-02-2020 12:20:00 13.9 C 63 % 6.98 C
150 29-02-2020 12:25:00 14.1 C 63 % 7.17 C
Sensor: Nr:Datum:Temp:Feuchte:Taupunkt:
Aussen-T/F 151 29-02-2020 12:30:00 14.2 C 64 % 7.5 C
152 29-02-2020 12:35:00 14.3 C 64 % 7.59 C
153 29-02-2020 12:40:00 14.4 C 63 % 7.45 C
154 29-02-2020 12:45:00 14.4 C 61 % 6.98 C
155 29-02-2020 12:50:00 14.4 C 63 % 7.45 C
156 29-02-2020 12:55:00 14.4 C 63 % 7.45 C
157 29-02-2020 13:00:00 14.4 C 63 % 7.45 C
158 29-02-2020 13:05:00 14.6 C 63 % 7.64 C
159 29-02-2020 13:10:00 14.6 C 62 % 7.41 C
160 29-02-2020 13:15:00 14.6 C 64 % 7.87 C
161 29-02-2020 13:20:00 14.6 C 64 % 7.87 C
162 29-02-2020 13:25:00 14.6 C 65 % 8.1 C
163 29-02-2020 13:30:00 14.5 C 63 % 7.55 C
164 29-02-2020 13:35:00 14.6 C 63 % 7.64 C
165 29-02-2020 13:40:00 14.6 C 65 % 8.1 C
166 29-02-2020 13:45:00 14.8 C 64 % 8.06 C
167 29-02-2020 13:50:00 14.9 C 65 % 8.39 C
168 29-02-2020 13:55:00 15.1 C 64 % 8.35 C
169 29-02-2020 14:00:00 15.2 C 62 % 7.98 C
170 29-02-2020 14:05:00 15.3 C 63 % 8.31 C
171 29-02-2020 14:10:00 15.2 C 64 % 8.44 C
172 29-02-2020 14:15:00 15.2 C 64 % 8.44 C
173 29-02-2020 14:20:00 15.1 C 64 % 8.35 C
174 29-02-2020 14:25:00 15.1 C 63 % 8.12 C
175 29-02-2020 14:30:00 15 C 65 % 8.48 C
Sensor: Nr:Datum:Temp:Feuchte:Taupunkt:
Aussen-T/F 176 29-02-2020 14:35:00 14.9 C 67 % 8.83 C
177 29-02-2020 14:40:00 14.6 C 70 % 9.2 C
178 29-02-2020 14:45:00 14.1 C 73 % 9.34 C
179 29-02-2020 14:50:00 13.6 C 76 % 9.45 C
180 29-02-2020 14:55:00 12.9 C 81 % 9.72 C
181 29-02-2020 15:00:00 12.2 C 84 % 9.58 C
182 29-02-2020 15:05:00 11.6 C 87 % 9.51 C
183 29-02-2020 15:10:00 11.3 C 89 % 9.55 C
184 29-02-2020 15:15:00 11.2 C 90 % 9.62 C
185 29-02-2020 15:20:00 11.2 C 91 % 9.79 C
186 29-02-2020 15:25:00 11.2 C 91 % 9.79 C
187 29-02-2020 15:30:00 11.2 C 91 % 9.79 C
188 29-02-2020 15:35:00 11.2 C 90 % 9.62 C
189 29-02-2020 15:40:00 11.2 C 90 % 9.62 C
190 29-02-2020 15:45:00 11.2 C 90 % 9.62 C
191 29-02-2020 15:50:00 11.2 C 89 % 9.46 C
192 29-02-2020 15:55:00 11.3 C 88 % 9.39 C
193 29-02-2020 16:00:00 11.3 C 87 % 9.22 C
194 29-02-2020 16:05:00 11.6 C 86 % 9.34 C
195 29-02-2020 16:10:00 11.8 C 84 % 9.19 C
196 29-02-2020 16:15:00 11.9 C 83 % 9.11 C
197 29-02-2020 16:20:00 11.9 C 82 % 8.93 C
198 29-02-2020 16:25:00 11.8 C 83 % 9.01 C
199 29-02-2020 16:30:00 11.6 C 84 % 8.99 C
200 29-02-2020 16:35:00 11.4 C 86 % 9.14 C
Sensor: Nr:Datum:Temp:Feuchte:Taupunkt:
Aussen-T/F 201 29-02-2020 16:40:00 11 C 87 % 8.92 C
202 29-02-2020 16:45:00 10.7 C 87 % 8.63 C
203 29-02-2020 16:50:00 10.6 C 87 % 8.53 C
204 29-02-2020 16:55:00 10.3 C 86 % 8.06 C
205 29-02-2020 17:00:00 10.2 C 86 % 7.97 C
206 29-02-2020 17:05:00 9.9 C 83 % 7.15 C
207 29-02-2020 17:10:00 9.7 C 81 % 6.6 C
208 29-02-2020 17:15:00 9.5 C 81 % 6.41 C
209 29-02-2020 17:20:00 9.3 C 82 % 6.39 C
210 29-02-2020 17:25:00 9.2 C 80 % 5.94 C
211 29-02-2020 17:30:00 9.1 C 80 % 5.84 C
212 29-02-2020 17:35:00 9.1 C 80 % 5.84 C
213 29-02-2020 17:40:00 9 C 81 % 5.92 C
214 29-02-2020 17:45:00 8.9 C 81 % 5.82 C
215 29-02-2020 17:50:00 8.9 C 82 % 6 C
216 29-02-2020 17:55:00 8.9 C 82 % 6 C
217 29-02-2020 18:00:00 8.9 C 82 % 6 C
218 29-02-2020 18:05:00 8.8 C 82 % 5.9 C
219 29-02-2020 18:10:00 8.9 C 82 % 6 C
220 29-02-2020 18:15:00 8.9 C 83 % 6.17 C
221 29-02-2020 18:20:00 8.8 C 83 % 6.08 C
222 29-02-2020 18:25:00 8.7 C 83 % 5.98 C
223 29-02-2020 18:30:00 8.6 C 84 % 6.05 C
224 29-02-2020 18:35:00 8.4 C 84 % 5.86 C
225 29-02-2020 18:40:00 8.3 C 82 % 5.41 C
Sensor: Nr:Datum:Temp:Feuchte:Taupunkt:
Aussen-T/F 226 29-02-2020 18:45:00 8.3 C 81 % 5.24 C
227 29-02-2020 18:50:00 8.1 C 81 % 5.04 C
228 29-02-2020 18:55:00 7.4 C 81 % 4.36 C
229 29-02-2020 19:00:00 7 C 83 % 4.32 C
230 29-02-2020 19:05:00 6.8 C 84 % 4.29 C
231 29-02-2020 19:10:00 6.6 C 86 % 4.43 C
232 29-02-2020 19:15:00 6.5 C 86 % 4.33 C
233 29-02-2020 19:20:00 6.4 C 85 % 4.07 C
234 29-02-2020 19:25:00 6.4 C 84 % 3.9 C
235 29-02-2020 19:30:00 6.4 C 84 % 3.9 C
236 29-02-2020 19:35:00 6.6 C 83 % 3.92 C
237 29-02-2020 19:40:00 6.7 C 81 % 3.68 C
238 29-02-2020 19:45:00 6.8 C 81 % 3.77 C
239 29-02-2020 19:50:00 6.8 C 81 % 3.77 C
240 29-02-2020 19:55:00 6.8 C 80 % 3.6 C
241 29-02-2020 20:00:00 6.8 C 80 % 3.6 C
242 29-02-2020 20:05:00 6.8 C 80 % 3.6 C
243 29-02-2020 20:10:00 6.8 C 80 % 3.6 C
244 29-02-2020 20:15:00 6.8 C 80 % 3.6 C
245 29-02-2020 20:20:00 6.7 C 80 % 3.5 C
246 29-02-2020 20:25:00 6.7 C 80 % 3.5 C
247 29-02-2020 20:30:00 6.6 C 79 % 3.23 C
248 29-02-2020 20:35:00 6.6 C 79 % 3.23 C
249 29-02-2020 20:40:00 6.5 C 79 % 3.13 C
250 29-02-2020 20:45:00 6.4 C 79 % 3.03 C
Sensor: Nr:Datum:Temp:Feuchte:Taupunkt:
Aussen-T/F 251 29-02-2020 20:50:00 6.3 C 79 % 2.93 C
252 29-02-2020 20:55:00 6.2 C 79 % 2.84 C
253 29-02-2020 21:00:00 6.1 C 78 % 2.56 C
254 29-02-2020 21:05:00 6 C 79 % 2.64 C
255 29-02-2020 21:10:00 5.9 C 78 % 2.37 C
256 29-02-2020 21:15:00 5.8 C 79 % 2.45 C
257 29-02-2020 21:20:00 5.8 C 79 % 2.45 C
258 29-02-2020 21:25:00 5.8 C 80 % 2.62 C
259 29-02-2020 21:30:00 5.7 C 80 % 2.53 C
260 29-02-2020 21:35:00 5.6 C 80 % 2.43 C
261 29-02-2020 21:40:00 5.5 C 80 % 2.33 C
262 29-02-2020 21:45:00 5.4 C 80 % 2.23 C
263 29-02-2020 21:50:00 5.4 C 81 % 2.41 C
264 29-02-2020 21:55:00 5.3 C 82 % 2.48 C
265 29-02-2020 22:00:00 5.2 C 83 % 2.56 C
266 29-02-2020 22:05:00 4.9 C 83 % 2.26 C
267 29-02-2020 22:10:00 4.8 C 84 % 2.33 C
268 29-02-2020 22:15:00 4.7 C 84 % 2.23 C
269 29-02-2020 22:20:00 4.6 C 85 % 2.3 C
270 29-02-2020 22:25:00 4.4 C 86 % 2.27 C
271 29-02-2020 22:30:00 4.4 C 86 % 2.27 C
272 29-02-2020 22:35:00 4.3 C 87 % 2.33 C
273 29-02-2020 22:40:00 4.3 C 87 % 2.33 C
274 29-02-2020 22:45:00 4.3 C 88 % 2.49 C
275 29-02-2020 22:50:00 4.3 C 88 % 2.49 C
Sensor: Nr:Datum:Temp:Feuchte:Taupunkt:
Aussen-T/F 276 29-02-2020 22:55:00 4.3 C 89 % 2.65 C
277 29-02-2020 23:00:00 4.4 C 89 % 2.75 C
278 29-02-2020 23:05:00 4.5 C 89 % 2.85 C
279 29-02-2020 23:10:00 4.7 C 88 % 2.89 C
280 29-02-2020 23:15:00 4.9 C 88 % 3.08 C
281 29-02-2020 23:20:00 5.1 C 87 % 3.12 C
282 29-02-2020 23:25:00 5.3 C 86 % 3.15 C
283 29-02-2020 23:30:00 5.3 C 86 % 3.15 C
284 29-02-2020 23:35:00 5.4 C 86 % 3.25 C
285 29-02-2020 23:40:00 5.4 C 86 % 3.25 C
286 29-02-2020 23:45:00 5.6 C 86 % 3.45 C
287 29-02-2020 23:50:00 5.8 C 85 % 3.48 C
288 29-02-2020 23:55:00 6.1 C 84 % 3.61 C

Legende:
   Min
   Max


Maximal/Minimal-Werte vom 29.02.2020 - 29.02.2020

Sensor Min Max Avg
Temp
(Aussen-T/F)
4.3 °C
29-02-2020  22:35:00
15.3 °C
29-02-2020  14:05:00
8.92 °C
Feuchte
(Aussen-T/F)
61 %
29-02-2020  12:45:00
95 %
29-02-2020  01:55:00
83.19 %
Taupunkt
(Aussen-T/F)
2.23 C
29-02-2020  21:45:00
9.79 C
29-02-2020  15:20:00
6.1 C

Die Daten stammen von einer Davis Vantage Pro 2 Wetter-Station und werden unter Linux mit der Software wview2wettercgi und aufbereitet. Alle Angaben erfolgen ohne Gewähr für ihre Vollständigkeit oder Richtigkeit.
Kontakt: Rainer Krienke krienke@uni-koblenz.de . Meine Webseiten an der Uni Koblenz oder privat.
Version: $Revision: 0.78 $